• Join FlightAware (Why Join?)
  • Login
  • US Flag 
07:09PM EDT


 

Airport Tracker/Info


-or-


 

Live Flight TrackerFlight Track Log ✈ XOJ549 ✈ 12-May-2013 ✈ KMSY - KSAF

Flight Track Log - Related Links

Times and Time Zones

All times are in EDT time to prevent confusion due to time zone crossing. See the XOJ549 flight status page for this flight to view local times or setup timezone preferences in your user account.

Time Position Orientation Groundspeed Altitude Reporting Facility
EDT Latitude Longitude Course Direction KTS MPH feet Rate Location/Type
02:41PM 30.0072 -90.2456 12° North 165 190 700  Level Houston Center
02:42PM 30.0317 -90.2397 12° North 164 189 2,300 3,300 Climbing Houston Center
02:43PM 30.0794 -90.2578 342° North 230 265 5,900 3,600 Climbing Houston Center
02:44PM 30.0964 -90.3392 284° West 262 302 9,800 3,960 Climbing Houston Center
02:45PM 30.1400 -90.4128 304° West 279 321 14,200 3,600 Climbing Houston Center
02:46PM 30.1875 -90.4867 307° West 282 325 17,300 3,000 Climbing Houston Center
02:47PM 30.2428 -90.5872 302° West 307 353 20,400 2,700 Climbing Houston Center
02:48PM 30.2858 -90.6819 298° West 330 380 23,000 2,880 Climbing Houston Center
02:49PM 30.3422 -90.7672 307° West 328 377 26,400 2,580 Climbing Houston Center
02:50PM 30.4033 -90.8422 313° West 322 371 28,400 1,740 Climbing Houston Center
02:51PM 30.4658 -90.9264 311° West 340 391 30,100 1,620 Climbing Houston Center
02:52PM 30.5319 -91.0153 311° West 359 413 31,800 1,620 Climbing Houston Center
02:53PM 30.5986 -91.1075 310° West 371 427 33,500 1,740 Climbing Houston Center
02:54PM 30.6753 -91.2219 308° West 373 429 35,500 1,740 Climbing Houston Center
02:55PM 30.7133 -91.3281 293° West 356 410 37,200 1,500 Climbing Houston Center
02:56PM 30.7542 -91.4278 295° West 349 402 38,600 1,140 Climbing Houston Center
02:57PM 30.7961 -91.5306 295° West 352 405 39,600 660 Climbing Houston Center
02:58PM 30.8386 -91.6350 295° West 355 409 40,000 180 Climbing Houston Center
02:59PM 30.8914 -91.7689 295° West 377 434 40,000 180 Level Houston Center
03:00PM 30.9372 -91.8839 295° West 389 448 40,400 1,080 Climbing Houston Center
03:01PM 30.9792 -91.9892 295° West 356 410 42,300 1,260 Climbing Houston Center
03:02PM 31.0217 -92.0975 295° West 346 398 43,000 300 Climbing Houston Center
03:03PM 31.0625 -92.2011 295° West 352 405 43,000  Level Houston Center
03:04PM 31.1044 -92.3086 295° West 362 417 43,000  Level Houston Center
03:05PM 31.1481 -92.4192 295° West 373 429 43,000  Level Houston Center
03:06PM 31.2011 -92.5514 295° West 375 432 43,000  Level Houston Center
03:07PM 31.2436 -92.6614 294° West 375 432 43,000  Level Houston Center
03:08PM 31.2878 -92.7747 295° West 385 443 43,000  Level Houston Center
03:09PM 31.3319 -92.8847 295° West 378 435 43,000  Level Houston Center
03:10PM 31.3750 -92.9961 294° West 377 434 43,000  Level Houston Center
03:11PM 31.4172 -93.1078 294° West 377 434 43,000  Level Houston Center
03:12PM 31.4692 -93.2408 295° West 377 434 43,000  Level Houston Center
03:14PM 31.5067 -93.3392 294° West 377 434 43,000  Level Houston Center
03:15PM 31.5586 -93.4756 294° West 382 440 43,000  Level Houston Center
03:16PM 31.6011 -93.5892 294° West 382 440 43,000  Level Houston Center
03:16PM 31.6253 -93.6661 290° West 380 437 43,000  Level Fort Worth Center
03:17PM 31.6703 -93.7789 295° West 380 437 43,000  Level Fort Worth Center
03:18PM 31.7133 -93.8919 294° West 375 432 43,000  Level Fort Worth Center
03:19PM 31.7542 -94.0078 293° West 375 432 43,000  Level Fort Worth Center
03:20PM 31.8008 -94.1183 296° West 375 432 43,000  Level Fort Worth Center
03:21PM 31.8433 -94.2319 294° West 375 432 43,000  Level Fort Worth Center
03:22PM 31.8858 -94.3453 294° West 375 432 43,000  Level Fort Worth Center
03:23PM 31.9281 -94.4564 294° West 375 432 43,000  Level Fort Worth Center
03:24PM 31.9706 -94.5728 293° West 375 432 43,000  Level Fort Worth Center
03:25PM 32.0106 -94.6867 293° West 375 432 43,000  Level Fort Worth Center
03:26PM 32.0525 -94.7981 294° West 375 432 43,000  Level Fort Worth Center
03:27PM 32.0925 -94.9097 293° West 375 432 43,000  Level Fort Worth Center
03:28PM 32.1344 -95.0239 293° West 375 432 43,000  Level Fort Worth Center
03:29PM 32.1761 -95.1356 294° West 375 432 43,000  Level Fort Worth Center
03:30PM 32.2178 -95.2500 293° West 375 432 43,000  Level Fort Worth Center
03:31PM 32.2572 -95.3644 292° West 375 432 43,000  Level Fort Worth Center
03:32PM 32.2986 -95.4792 293° West 375 432 43,000  Level Fort Worth Center
03:33PM 32.3381 -95.5964 292° West 381 438 43,000  Level Fort Worth Center
03:34PM 32.3794 -95.7111 293° West 381 438 43,000  Level Fort Worth Center
03:35PM 32.4206 -95.8308 292° West 381 438 43,000  Level Fort Worth Center
03:36PM 32.4617 -95.9433 293° West 381 438 43,000  Level Fort Worth Center
03:37PM 32.5069 -96.0733 292° West 389 448 43,000  Level Fort Worth Center
03:38PM 32.5433 -96.1786 292° West 389 448 43,000  Level Fort Worth Center
03:39PM 32.5886 -96.3089 292° West 394 453 43,000  Level Fort Worth Center
03:40PM 32.6269 -96.4194 292° West 394 453 43,000  Level Fort Worth Center
03:41PM 32.6697 -96.5544 291° West 394 453 43,000  Level Fort Worth Center
03:42PM 32.7081 -96.6653 292° West 394 453 43,000  Level Fort Worth Center
03:43PM 32.7525 -96.8008 291° West 405 466 43,000  Level Fort Worth Center
03:44PM 32.7928 -96.9217 292° West 405 466 43,000  Level Fort Worth Center
03:45PM 32.8308 -97.0328 292° West 405 466 43,000  Level Fort Worth Center
03:46PM 32.8750 -97.1711 291° West 405 466 43,000  Level Fort Worth Center
03:47PM 32.9125 -97.2822 292° West 405 466 43,000  Level Fort Worth Center
03:48PM 32.9586 -97.4208 292° West 410 472 43,000  Level Fort Worth Center
03:49PM 32.9942 -97.5397 290° West 421 484 43,000  Level Fort Worth Center
03:50PM 33.0356 -97.6661 291° West 421 484 43,000  Level Fort Worth Center
03:51PM 33.0769 -97.8053 290° West 414 476 43,000  Level Fort Worth Center
03:52PM 33.1161 -97.9219 292° West 409 471 43,000  Level Fort Worth Center
03:53PM 33.1594 -98.0611 290° West 409 471 43,000  Level Fort Worth Center
03:54PM 33.1964 -98.1756 291° West 409 471 43,000  Level Fort Worth Center
03:55PM 33.2414 -98.3175 291° West 409 471 43,000  Level Fort Worth Center
03:56PM 33.2819 -98.4497 290° West 414 476 43,000  Level Fort Worth Center
03:57PM 33.3186 -98.5669 291° West 414 476 43,000  Level Fort Worth Center
03:58PM 33.3592 -98.6967 291° West 414 476 43,000  Level Fort Worth Center
03:59PM 33.3994 -98.8267 290° West 419 482 43,000  Level Fort Worth Center
04:00PM 33.4394 -98.9594 290° West 419 482 43,000  Level Fort Worth Center
04:01PM 33.4817 -99.0894 291° West 419 482 43,000  Level Fort Worth Center
04:02PM 33.5194 -99.2222 289° West 419 482 43,000  Level Fort Worth Center
04:03PM 33.5614 -99.3528 291° West 419 482 43,000  Level Fort Worth Center
04:04PM 33.5989 -99.4833 289° West 419 482 43,000  Level Fort Worth Center
04:05PM 33.6406 -99.6189 290° West 419 482 43,000  Level Fort Worth Center
04:06PM 33.6778 -99.7472 289° West 424 488 43,000  Level Fort Worth Center
04:07PM 33.7192 -99.8808 290° West 424 488 43,000  Level Fort Worth Center
04:08PM 33.7561 -100.0142 288° West 424 488 43,000  Level Fort Worth Center
04:09PM 33.7950 -100.1453 290° West 424 488 43,000  Level Fort Worth Center
04:10PM 33.8336 -100.2817 289° West 424 488 43,000  Level Fort Worth Center
04:11PM 33.8722 -100.4178 289° West 430 495 43,000  Level Fort Worth Center
04:12PM 33.9128 -100.5494 290° West 425 489 43,000  Level Fort Worth Center
04:13PM 33.9511 -100.6836 289° West 425 489 43,000  Level Fort Worth Center
04:14PM 33.9914 -100.8203 290° West 430 495 43,000  Level Fort Worth Center
04:15PM 34.0292 -100.9544 289° West 430 495 43,000  Level Fort Worth Center
04:16PM 34.0728 -101.1067 289° West 430 495 43,000  Level Fort Worth Center
04:17PM 34.1103 -101.2464 288° West 435 501 43,000  Level Fort Worth Center
04:18PM 34.1519 -101.3836 290° West 435 501 43,000  Level Fort Worth Center
04:19PM 34.1892 -101.5211 288° West 437 503 43,000  Level Fort Worth Center
04:20PM 34.2286 -101.6558 290° West 429 494 43,000  Level Fort Worth Center
04:21PM 34.2656 -101.7936 288° West 430 495 43,000  Level Fort Worth Center
04:22PM 34.3022 -101.9336 288° West 430 495 43,000  Level Fort Worth Center
04:23PM 34.3411 -102.0714 289° West 430 495 43,000  Level Fort Worth Center
04:24PM 34.3658 -102.1578 289° West 436 502 43,000  Level Albuquerque Center
04:25PM 34.4033 -102.2983 288° West 437 503 43,000  Level Albuquerque Center
04:26PM 34.4425 -102.4397 289° West 439 505 43,000  Level Albuquerque Center
04:27PM 34.4803 -102.5794 288° West 438 504 43,000  Level Albuquerque Center
04:28PM 34.5194 -102.7286 288° West 439 505 43,000  Level Albuquerque Center
04:29PM 34.5575 -102.8733 288° West 445 512 43,000  Level Albuquerque Center
04:30PM 34.5967 -103.0172 288° West 445 512 43,000  Level Albuquerque Center
04:31PM 34.6408 -103.1861 288° West 446 513 43,000  Level Albuquerque Center
04:32PM 34.6786 -103.3308 288° West 447 514 43,000  Level Albuquerque Center
04:33PM 34.7164 -103.4758 288° West 445 512 43,000  Level Albuquerque Center
04:34PM 34.7542 -103.6186 288° West 441 507 43,000 -120 Level Albuquerque Center
04:35PM 34.7911 -103.7619 287° West 439 505 42,800 -540 Descending Albuquerque Center
04:36PM 34.8367 -103.9033 291° West 442 509 41,900 -900 Descending Albuquerque Center
04:37PM 34.8853 -104.0456 293° West 446 513 41,000 -960 Descending Albuquerque Center
04:38PM 34.9325 -104.1903 292° West 451 519 40,000 -960 Descending Albuquerque Center
04:39PM 34.9811 -104.3381 292° West 457 526 39,100 -1,080 Descending Albuquerque Center
04:40PM 35.0300 -104.4878 292° West 463 533 37,800 -1,380 Descending Albuquerque Center
04:41PM 35.0817 -104.6419 292° West 477 549 36,300 -1,980 Descending Albuquerque Center
04:42PM 35.1322 -104.7944 292° West 478 550 33,800 -2,820 Descending Albuquerque Center
04:44PM 35.1817 -104.9442 292° West 472 543 30,600 -2,940 Descending Albuquerque Center
04:45PM 35.2383 -105.1211 291° West 473 544 27,800 -2,700 Descending Albuquerque Center
04:46PM 35.2872 -105.2717 292° West 473 544 25,100 -2,400 Descending Albuquerque Center
04:47PM 35.3264 -105.4108 289° West 443 510 23,000 -1,380 Descending Albuquerque Center
04:48PM 35.3300 -105.5522 272° West 417 480 22,300 -1,020 Descending Albuquerque Center
04:49PM 35.3403 -105.6850 275° West 397 457 20,900 -2,820 Descending Albuquerque Center
04:50PM 35.3197 -105.8108 259° West 382 440 16,600 -3,420 Descending Albuquerque Center
04:51PM 35.3075 -105.9356 263° West 371 427 14,000 -2,280 Descending Albuquerque Center
04:52PM 35.3464 -106.0211 299° West 316 364 12,000 -1,500 Descending Albuquerque Center
04:53PM 35.4122 -106.0661 331° Northwest 288 331 11,000 -1,080 Descending Albuquerque Center
04:54PM 35.4731 -106.0989 336° Northwest 265 305 9,900 -1,500 Descending Albuquerque Center
04:55PM 35.5314 -106.1361 333° Northwest 230 265 8,000 -1,380 Descending Albuquerque Center
04:56PM 35.5736 -106.1278 North 189 217 7,100 -900 Descending Albuquerque Center